Time;durP1;ratioP1;P1;durP2;ratioP2;P2;SDS_P1;SDS_P2;PMS_P1;PMS_P2;Temp;Humidity;BMP_temperature;BMP_pressure;BME280_temperature;BME280_humidity;BME280_pressure;Samples;Min_cycle;Max_cycle;Signal;HPM_P1;HPM_P2
2022/03/04 00:00:05;;;;;;;17.27;11.20;;;1.50;92.00;;;;;;5071941;28;20232;-65
2022/03/04 00:02:32;;;;;;;17.17;11.37;;;1.50;92.30;;;;;;5071665;28;20719;-64
2022/03/04 00:04:59;;;;;;;18.97;12.03;;;1.50;92.40;;;;;;5071693;28;20216;-65
2022/03/04 00:07:26;;;;;;;16.03;11.40;;;1.40;92.40;;;;;;5072087;28;20205;-65
2022/03/04 00:09:52;;;;;;;16.63;11.50;;;1.30;92.30;;;;;;5071890;28;20277;-65
2022/03/04 00:12:19;;;;;;;18.17;11.77;;;1.40;92.20;;;;;;5071703;28;20236;-66
2022/03/04 00:14:46;;;;;;;16.70;11.27;;;1.40;92.20;;;;;;5071923;28;20215;-66
2022/03/04 00:17:14;;;;;;;17.70;11.57;;;1.40;92.20;;;;;;5071741;28;20235;-66
2022/03/04 00:19:41;;;;;;;15.20;10.70;;;1.40;92.10;;;;;;5071869;28;20232;-65
2022/03/04 00:22:08;;;;;;;16.10;10.63;;;1.50;92.00;;;;;;5072009;28;20233;-66
2022/03/04 00:24:34;;;;;;;14.93;10.37;;;1.50;91.80;;;;;;5071831;28;20209;-65
2022/03/04 00:27:01;;;;;;;16.60;10.00;;;1.60;91.90;;;;;;5071692;28;20263;-65
2022/03/04 00:29:28;;;;;;;16.63;11.00;;;1.60;91.70;;;;;;5071589;28;20224;-66
2022/03/04 00:31:54;;;;;;;15.40;10.57;;;1.70;91.70;;;;;;5073375;28;20695;-66
2022/03/04 00:34:22;;;;;;;17.70;10.83;;;1.70;91.80;;;;;;5075536;28;20636;-66
2022/03/04 00:36:49;;;;;;;18.17;11.30;;;1.60;91.90;;;;;;5075845;28;20330;-65
2022/03/04 00:39:16;;;;;;;15.63;10.80;;;1.60;92.00;;;;;;5075737;28;20315;-65
2022/03/04 00:41:44;;;;;;;14.57;10.50;;;1.60;92.00;;;;;;5075627;28;20235;-65
2022/03/04 00:44:11;;;;;;;16.23;11.07;;;1.60;92.00;;;;;;5075431;28;20291;-65
2022/03/04 00:46:38;;;;;;;15.30;10.50;;;1.60;92.50;;;;;;5075636;28;20211;-66
2022/03/04 00:49:05;;;;;;;15.87;10.43;;;1.50;92.20;;;;;;5075325;28;20704;-65
2022/03/04 00:51:33;;;;;;;15.60;11.17;;;1.50;92.30;;;;;;5075339;28;20620;-66
2022/03/04 00:54:00;;;;;;;15.80;11.13;;;1.50;92.40;;;;;;5075278;28;20205;-65
2022/03/04 00:56:27;;;;;;;16.17;11.20;;;1.50;92.40;;;;;;5075170;28;20208;-66
2022/03/04 00:58:53;;;;;;;16.63;11.97;;;1.50;92.40;;;;;;5075311;28;20229;-66
2022/03/04 01:01:20;;;;;;;19.23;11.63;;;1.50;92.50;;;;;;5075072;28;20224;-66
2022/03/04 01:03:47;;;;;;;16.53;10.70;;;1.40;92.70;;;;;;5074871;28;20610;-66
2022/03/04 01:06:14;;;;;;;15.30;10.93;;;1.40;92.60;;;;;;5075240;28;20204;-66
2022/03/04 01:08:42;;;;;;;16.00;11.10;;;1.30;92.70;;;;;;5075057;28;20645;-66
2022/03/04 01:11:08;;;;;;;15.87;11.10;;;1.20;92.90;;;;;;5075275;28;20216;-66
2022/03/04 01:13:36;;;;;;;15.60;11.00;;;1.20;93.00;;;;;;5074826;28;20208;-66
2022/03/04 01:16:03;;;;;;;17.30;10.70;;;1.10;93.20;;;;;;5074942;28;20707;-66
2022/03/04 01:18:30;;;;;;;20.90;12.97;;;1.00;93.20;;;;;;5074976;28;20237;-66
2022/03/04 01:20:57;;;;;;;19.57;12.67;;;1.00;93.30;;;;;;5074935;28;20232;-66
2022/03/04 01:23:23;;;;;;;20.80;12.77;;;0.90;93.30;;;;;;5074788;28;20262;-66
2022/03/04 01:25:53;;;;;;;17.27;11.13;;;0.90;93.50;;;;;;5074613;28;20717;-66
2022/03/04 01:28:20;;;;;;;16.90;11.30;;;0.90;93.50;;;;;;5074643;28;20711;-66
2022/03/04 01:30:47;;;;;;;17.00;10.97;;;0.90;93.60;;;;;;5074439;28;20652;-66
2022/03/04 01:33:13;;;;;;;15.30;10.83;;;0.80;93.70;;;;;;5074551;28;20253;-66
2022/03/04 01:35:41;;;;;;;18.57;11.40;;;0.80;93.80;;;;;;5074846;28;20657;-66
2022/03/04 01:38:08;;;;;;;16.57;10.83;;;0.80;93.80;;;;;;5074493;28;20227;-66
2022/03/04 01:40:35;;;;;;;15.50;10.97;;;0.80;93.80;;;;;;5074429;28;20235;-66
2022/03/04 01:43:03;;;;;;;17.53;11.70;;;0.80;93.90;;;;;;5073106;28;20274;-66
2022/03/04 01:45:30;;;;;;;16.97;11.00;;;0.80;94.00;;;;;;5074361;28;20353;-66
2022/03/04 01:47:57;;;;;;;17.30;11.37;;;0.80;94.00;;;;;;5074358;28;20205;-66
2022/03/04 01:50:25;;;;;;;17.80;11.53;;;0.80;94.00;;;;;;5074317;28;20263;-66
2022/03/04 01:52:52;;;;;;;17.77;11.50;;;0.80;94.00;;;;;;5074098;28;20668;-65
2022/03/04 01:55:19;;;;;;;16.23;11.20;;;0.80;94.00;;;;;;5074158;28;20212;-66
2022/03/04 01:57:46;;;;;;;18.23;12.13;;;0.80;94.00;;;;;;5074256;28;20251;-66
2022/03/04 02:00:16;;;;;;;19.40;11.63;;;0.80;94.10;;;;;;5074319;28;20413;-66
2022/03/04 02:02:44;;;;;;;18.23;11.63;;;0.70;94.10;;;;;;5074347;28;20319;-64
2022/03/04 02:05:13;;;;;;;17.07;11.87;;;0.80;94.10;;;;;;5073975;28;20439;-66
2022/03/04 02:07:39;;;;;;;21.40;11.83;;;0.80;94.10;;;;;;5074180;28;20209;-66
2022/03/04 02:10:08;;;;;;;22.43;12.90;;;0.80;94.10;;;;;;5073863;28;20778;-66
2022/03/04 02:12:35;;;;;;;22.97;15.20;;;0.80;94.20;;;;;;5074265;28;20263;-65
2022/03/04 02:15:03;;;;;;;26.67;16.43;;;0.70;94.30;;;;;;5073736;28;20296;-66
2022/03/04 02:17:31;;;;;;;22.87;14.50;;;0.70;94.20;;;;;;5073747;28;20259;-66
2022/03/04 02:19:58;;;;;;;49.70;35.30;;;0.70;94.20;;;;;;5073465;28;20244;-65
2022/03/04 02:22:26;;;;;;;41.10;30.47;;;0.70;94.30;;;;;;5073511;28;20237;-66
2022/03/04 02:24:53;;;;;;;15.60;11.43;;;0.70;94.20;;;;;;5073242;28;20319;-65
2022/03/04 02:27:20;;;;;;;22.40;16.03;;;0.70;94.30;;;;;;5073777;28;20206;-66
2022/03/04 02:29:47;;;;;;;18.87;13.40;;;0.60;94.20;;;;;;5073760;28;20275;-66
2022/03/04 02:32:13;;;;;;;16.23;11.30;;;0.60;94.40;;;;;;5073325;28;20741;-65
2022/03/04 02:34:40;;;;;;;16.63;10.83;;;0.50;94.40;;;;;;5073184;28;20205;-66
2022/03/04 02:37:07;;;;;;;16.90;11.07;;;0.50;94.50;;;;;;5073296;28;20695;-66
2022/03/04 02:39:35;;;;;;;15.83;9.37;;;0.50;94.40;;;;;;5073023;28;20232;-66
2022/03/04 02:42:02;;;;;;;16.87;10.13;;;0.40;94.40;;;;;;5073284;28;20576;-66
2022/03/04 02:44:29;;;;;;;16.17;10.53;;;0.40;94.40;;;;;;5073032;28;20212;-66
2022/03/04 02:46:56;;;;;;;14.90;11.00;;;0.40;94.40;;;;;;5073047;28;20258;-66
2022/03/04 02:49:22;;;;;;;14.43;10.07;;;0.40;94.50;;;;;;5073091;28;20301;-66
2022/03/04 02:51:49;;;;;;;16.93;10.60;;;0.40;94.50;;;;;;5073051;28;20200;-66
2022/03/04 02:54:16;;;;;;;15.43;11.07;;;0.40;94.60;;;;;;5072865;28;20267;-66
2022/03/04 02:56:44;;;;;;;15.33;9.87;;;0.30;94.70;;;;;;5073122;28;20212;-65
2022/03/04 02:59:10;;;;;;;14.73;9.97;;;0.40;94.70;;;;;;5072803;28;20781;-66
2022/03/04 03:01:37;;;;;;;16.10;10.50;;;0.40;94.60;;;;;;5072944;28;20205;-66
2022/03/04 03:04:04;;;;;;;18.43;11.47;;;0.40;94.70;;;;;;5072603;28;20220;-66
2022/03/04 03:06:31;;;;;;;16.23;10.93;;;0.40;94.60;;;;;;5072608;28;20277;-65
2022/03/04 03:08:57;;;;;;;15.87;10.27;;;0.50;94.70;;;;;;5072547;28;20297;-66
2022/03/04 03:11:24;;;;;;;19.20;10.70;;;0.50;94.80;;;;;;5072649;28;20775;-66
2022/03/04 03:13:52;;;;;;;15.17;10.60;;;0.50;94.70;;;;;;5072488;28;20251;-65
2022/03/04 03:16:19;;;;;;;16.83;11.07;;;0.60;94.70;;;;;;5072565;28;20209;-65
2022/03/04 03:18:45;;;;;;;15.27;10.70;;;0.60;94.60;;;;;;5100179;22;20220;-56
2022/03/04 03:21:12;;;;;;;15.77;10.23;;;0.60;94.60;;;;;;5084315;28;20201;-56
2022/03/04 03:23:39;;;;;;;15.77;10.93;;;0.60;94.80;;;;;;5092744;28;20288;-57
2022/03/04 03:26:05;;;;;;;15.23;9.77;;;0.50;94.80;;;;;;5093245;28;20204;-57
2022/03/04 03:28:32;;;;;;;15.40;10.70;;;0.60;94.90;;;;;;5093628;28;20221;-56
2022/03/04 03:31:00;;;;;;;15.23;10.47;;;0.60;94.80;;;;;;5093149;28;20210;-56
2022/03/04 03:33:27;;;;;;;15.60;10.53;;;0.60;94.80;;;;;;5092493;28;20573;-57
2022/03/04 03:35:54;;;;;;;15.20;10.67;;;0.60;94.80;;;;;;5092596;28;20556;-57
2022/03/04 03:38:22;;;;;;;14.63;10.63;;;0.50;94.80;;;;;;5092571;28;20227;-58
2022/03/04 03:40:49;;;;;;;16.20;11.10;;;0.50;94.90;;;;;;5092466;28;20771;-56
2022/03/04 03:43:16;;;;;;;16.33;10.97;;;0.40;95.00;;;;;;5092256;28;20634;-57
2022/03/04 03:45:43;;;;;;;14.70;10.43;;;0.40;95.10;;;;;;5092726;28;20208;-57
2022/03/04 03:48:11;;;;;;;18.43;11.50;;;0.40;95.10;;;;;;5092455;28;20293;-58
2022/03/04 03:50:38;;;;;;;17.27;10.70;;;0.30;95.00;;;;;;5092614;28;20246;-57
2022/03/04 03:53:05;;;;;;;25.73;15.20;;;0.30;95.00;;;;;;5092222;28;20292;-60
2022/03/04 03:55:32;;;;;;;15.97;11.10;;;0.20;95.10;;;;;;5092381;28;20599;-57
2022/03/04 03:57:59;;;;;;;15.73;11.07;;;0.20;95.20;;;;;;5092133;28;20208;-57
2022/03/04 04:00:26;;;;;;;18.43;11.53;;;0.20;95.20;;;;;;5091979;28;20315;-58
2022/03/04 04:02:53;;;;;;;16.77;11.13;;;0.20;95.10;;;;;;5092343;28;20294;-57
2022/03/04 04:05:21;;;;;;;17.57;11.77;;;0.20;95.10;;;;;;5092088;28;20203;-60
2022/03/04 04:07:48;;;;;;;16.57;10.90;;;0.20;95.10;;;;;;5091941;28;20207;-58
2022/03/04 04:10:15;;;;;;;15.57;11.20;;;0.10;95.20;;;;;;5092247;28;20730;-57
2022/03/04 04:12:41;;;;;;;16.63;11.93;;;0.10;95.20;;;;;;5092564;28;20611;-56
2022/03/04 04:15:08;;;;;;;21.10;12.30;;;0.10;95.50;;;;;;5092251;28;20200;-57
2022/03/04 04:17:35;;;;;;;18.83;12.10;;;0.10;95.30;;;;;;5092627;28;20210;-57
2022/03/04 04:20:02;;;;;;;22.80;12.87;;;0.00;95.50;;;;;;5092110;28;20232;-57
2022/03/04 04:22:30;;;;;;;16.97;11.97;;;-0.10;95.50;;;;;;5091779;28;20235;-57
2022/03/04 04:24:57;;;;;;;17.93;11.07;;;-0.10;95.60;;;;;;5091691;28;20672;-56
2022/03/04 04:27:24;;;;;;;17.83;12.33;;;-0.20;95.80;;;;;;5091932;28;20212;-56
2022/03/04 04:29:50;;;;;;;17.33;11.73;;;-0.30;96.20;;;;;;5091686;28;20231;-57
2022/03/04 04:32:17;;;;;;;17.73;11.70;;;-0.50;96.40;;;;;;5092118;28;20552;-57
2022/03/04 04:34:44;;;;;;;18.20;12.43;;;-0.60;96.60;;;;;;5091646;28;20200;-57
2022/03/04 04:37:10;;;;;;;18.83;12.27;;;-0.60;96.50;;;;;;5091687;28;20200;-58
2022/03/04 04:39:38;;;;;;;20.77;12.23;;;-0.70;96.40;;;;;;5091649;28;20224;-56
2022/03/04 04:42:05;;;;;;;18.63;12.47;;;-0.60;96.50;;;;;;5091659;28;20249;-57
2022/03/04 04:44:32;;;;;;;18.70;12.03;;;-0.70;96.40;;;;;;5091385;28;20721;-56
2022/03/04 04:46:59;;;;;;;21.53;13.73;;;-0.70;96.50;;;;;;5091800;28;20249;-57
2022/03/04 04:49:26;;;;;;;20.73;14.20;;;-0.70;96.50;;;;;;5091799;28;20223;-56
2022/03/04 04:51:53;;;;;;;17.17;12.37;;;-0.60;96.50;;;;;;5091908;28;20295;-58
2022/03/04 04:54:20;;;;;;;19.83;12.23;;;-0.60;96.40;;;;;;5091448;28;20200;-56
2022/03/04 04:56:48;;;;;;;18.53;12.73;;;-0.70;96.40;;;;;;5092180;28;20664;-57
2022/03/04 04:59:14;;;;;;;18.20;11.93;;;-0.70;96.50;;;;;;5091723;28;20231;-56
2022/03/04 05:01:41;;;;;;;19.40;12.20;;;-0.70;96.60;;;;;;5091787;28;20258;-58
2022/03/04 05:04:09;;;;;;;18.90;12.07;;;-0.80;96.70;;;;;;5091704;28;20224;-57
2022/03/04 05:06:35;;;;;;;18.10;12.30;;;-0.80;96.90;;;;;;5091711;28;20726;-56
2022/03/04 05:09:02;;;;;;;20.00;13.27;;;-0.80;96.90;;;;;;5091836;28;20236;-56
2022/03/04 05:11:29;;;;;;;22.10;13.93;;;-0.90;96.90;;;;;;5091623;28;20208;-57
2022/03/04 05:13:57;;;;;;;19.30;12.20;;;-0.90;96.90;;;;;;5091430;28;20686;-57
2022/03/04 05:16:24;;;;;;;18.67;11.90;;;-0.90;97.00;;;;;;5092370;28;20200;-57
2022/03/04 05:18:50;;;;;;;15.77;11.30;;;-0.90;97.00;;;;;;5092698;28;20305;-56
2022/03/04 05:21:17;;;;;;;20.40;11.33;;;-0.90;97.10;;;;;;5095579;28;20227;-56
2022/03/04 05:24:02;;;;;;;17.80;11.63;;;-0.90;97.10;;;;;;5095187;28;20273;-57
2022/03/04 05:26:31;;;;;;;20.70;12.97;;;-0.80;97.10;;;;;;5095589;28;20204;-57
2022/03/04 05:29:01;;;;;;;26.93;16.67;;;-0.80;97.10;;;;;;5095063;28;20770;-58
2022/03/04 05:31:28;;;;;;;19.63;12.20;;;-0.80;97.10;;;;;;5094815;28;20281;-60
2022/03/04 05:33:55;;;;;;;16.93;11.83;;;-0.80;97.20;;;;;;5094874;28;20205;-58
2022/03/04 05:36:22;;;;;;;18.07;11.53;;;-0.80;97.20;;;;;;5094923;28;20698;-59
2022/03/04 05:38:50;;;;;;;18.00;11.57;;;-0.90;97.40;;;;;;5094791;28;20228;-57
2022/03/04 05:41:17;;;;;;;18.07;11.93;;;-0.90;97.40;;;;;;5094895;28;20672;-58
2022/03/04 05:43:44;;;;;;;23.53;13.10;;;-0.90;97.30;;;;;;5094564;28;20231;-57
2022/03/04 05:46:13;;;;;;;22.57;12.67;;;-0.80;97.40;;;;;;5095099;28;20212;-58
2022/03/04 05:48:39;;;;;;;21.57;12.90;;;-0.80;97.40;;;;;;5094513;28;20334;-58
2022/03/04 05:51:06;;;;;;;18.57;12.67;;;-0.80;97.30;;;;;;5094773;28;20290;-57
2022/03/04 05:53:34;;;;;;;21.83;13.20;;;-0.70;97.30;;;;;;5094378;28;20196;-57
2022/03/04 05:56:01;;;;;;;19.10;13.00;;;-0.70;97.30;;;;;;5094753;28;20208;-58
2022/03/04 05:58:28;;;;;;;17.37;12.17;;;-0.70;97.30;;;;;;5094604;28;20253;-57
2022/03/04 06:00:55;;;;;;;26.93;20.13;;;-0.70;97.30;;;;;;5094618;28;20235;-58
2022/03/04 06:03:23;;;;;;;18.17;12.50;;;-0.70;97.30;;;;;;5094174;28;20227;-58
2022/03/04 06:05:49;;;;;;;17.97;11.87;;;-0.70;97.30;;;;;;5094387;28;20209;-57
2022/03/04 06:08:16;;;;;;;21.03;12.27;;;-0.80;97.40;;;;;;5094680;28;20208;-57
2022/03/04 06:10:43;;;;;;;22.10;12.87;;;-0.70;97.40;;;;;;5094344;28;20248;-58
2022/03/04 06:13:11;;;;;;;18.60;12.50;;;-0.70;97.40;;;;;;5094122;28;20667;-57
2022/03/04 06:15:38;;;;;;;19.10;13.43;;;-0.70;97.40;;;;;;5093942;28;20200;-57
2022/03/04 06:18:04;;;;;;;17.17;12.23;;;-0.70;97.50;;;;;;5094203;28;20204;-57
2022/03/04 06:20:33;;;;;;;19.37;12.83;;;-0.60;97.50;;;;;;5094052;28;20576;-58
2022/03/04 06:22:59;;;;;;;19.30;12.77;;;-0.60;97.50;;;;;;5094196;28;20301;-58
2022/03/04 06:25:26;;;;;;;23.37;15.43;;;-0.60;97.50;;;;;;5094063;28;20200;-57
2022/03/04 06:27:55;;;;;;;28.60;17.20;;;-0.60;97.50;;;;;;5094179;28;20281;-58
2022/03/04 06:30:22;;;;;;;28.43;17.17;;;-0.60;97.50;;;;;;5093485;28;20228;-58
2022/03/04 06:32:49;;;;;;;32.10;17.07;;;-0.60;97.50;;;;;;5094218;28;20204;-58
2022/03/04 06:35:16;;;;;;;24.40;15.83;;;-0.60;97.50;;;;;;5094547;28;20204;-58
2022/03/04 06:37:44;;;;;;;27.37;16.50;;;-0.50;97.50;;;;;;5093865;28;20711;-57
2022/03/04 06:40:12;;;;;;;27.77;17.20;;;-0.50;97.50;;;;;;5093805;28;20662;-57
2022/03/04 06:42:39;;;;;;;28.70;16.60;;;-0.50;97.40;;;;;;5093986;28;20206;-57
2022/03/04 06:45:06;;;;;;;24.37;15.43;;;-0.40;97.50;;;;;;5093533;28;20556;-57
2022/03/04 06:47:33;;;;;;;28.37;16.43;;;-0.40;97.70;;;;;;5093740;28;20211;-58
2022/03/04 06:50:00;;;;;;;24.67;14.93;;;0.10;98.90;;;;;;5093713;28;20576;-58
2022/03/04 06:52:26;;;;;;;27.60;15.57;;;1.30;98.70;;;;;;5093843;28;20227;-57
2022/03/04 06:54:54;;;;;;;22.37;15.03;;;2.70;97.00;;;;;;5093336;28;20200;-56
2022/03/04 06:57:21;;;;;;;22.07;14.37;;;3.90;93.70;;;;;;5093583;28;20208;-58
2022/03/04 06:59:49;;;;;;;20.03;13.53;;;5.20;92.00;;;;;;5093317;28;20643;-58
2022/03/04 07:02:16;;;;;;;20.23;13.23;;;6.50;90.10;;;;;;5093372;28;20602;-58
2022/03/04 07:04:42;;;;;;;19.87;12.40;;;7.60;86.70;;;;;;5093445;28;20316;-58
2022/03/04 07:07:09;;;;;;;19.43;12.57;;;8.40;82.20;;;;;;5093443;28;20253;-57
2022/03/04 07:09:36;;;;;;;17.87;11.93;;;9.10;80.70;;;;;;5093270;28;20228;-58
2022/03/04 07:12:04;;;;;;;18.30;13.00;;;9.70;77.50;;;;;;5092974;28;20220;-59
2022/03/04 07:14:31;;;;;;;16.60;13.00;;;10.30;75.00;;;;;;5092839;28;20241;-58
2022/03/04 07:16:58;;;;;;;19.67;12.93;;;11.00;73.50;;;;;;5092948;28;20254;-58
2022/03/04 07:19:24;;;;;;;17.73;13.00;;;11.70;70.30;;;;;;5092963;28;20642;-59
2022/03/04 07:21:51;;;;;;;19.37;12.53;;;12.50;68.40;;;;;;5093041;28;20201;-58
2022/03/04 07:24:18;;;;;;;17.77;13.07;;;13.10;64.80;;;;;;5092772;28;20224;-58
2022/03/04 07:26:45;;;;;;;17.40;12.53;;;13.50;65.10;;;;;;5093203;28;20204;-59
2022/03/04 07:29:13;;;;;;;18.37;12.50;;;14.00;63.30;;;;;;5092861;28;20220;-59
2022/03/04 07:31:39;;;;;;;19.77;12.87;;;14.40;61.40;;;;;;5092462;28;20663;-59
2022/03/04 07:34:06;;;;;;;21.83;14.20;;;14.50;60.00;;;;;;5092699;28;20231;-58
2022/03/04 07:36:33;;;;;;;16.37;13.23;;;14.70;60.30;;;;;;5092793;28;20204;-59
2022/03/04 07:39:00;;;;;;;20.63;13.63;;;15.10;58.80;;;;;;5092809;28;20255;-58
2022/03/04 07:41:27;;;;;;;18.33;13.40;;;15.20;58.50;;;;;;5091748;28;20211;-59
2022/03/04 07:43:54;;;;;;;16.20;13.27;;;15.30;56.40;;;;;;5092504;28;20240;-58
2022/03/04 07:46:23;;;;;;;19.27;12.70;;;14.80;57.90;;;;;;5092550;28;20676;-58
2022/03/04 07:48:50;;;;;;;16.90;12.50;;;14.30;59.20;;;;;;5092827;28;20259;-58
2022/03/04 07:51:16;;;;;;;20.00;13.30;;;13.80;59.70;;;;;;5093405;28;20321;-57
2022/03/04 07:53:43;;;;;;;17.13;13.47;;;12.90;60.50;;;;;;5092528;28;20304;-57
2022/03/04 07:56:10;;;;;;;16.90;12.60;;;12.00;61.30;;;;;;5092626;28;20604;-57
2022/03/04 07:58:37;;;;;;;18.43;12.73;;;11.10;62.60;;;;;;5093061;28;20224;-57
2022/03/04 08:01:04;;;;;;;17.13;13.57;;;10.30;63.90;;;;;;5092760;28;20205;-58
2022/03/04 08:03:32;;;;;;;18.13;12.83;;;9.50;66.30;;;;;;5092411;28;20227;-57
2022/03/04 08:05:59;;;;;;;19.50;13.43;;;8.70;68.00;;;;;;5092529;28;20257;-58
2022/03/04 08:08:25;;;;;;;18.67;13.33;;;8.00;70.70;;;;;;5092394;28;20211;-59
2022/03/04 08:10:53;;;;;;;23.27;14.07;;;7.40;73.00;;;;;;5092436;28;20632;-58
2022/03/04 08:13:19;;;;;;;26.73;16.57;;;6.90;74.30;;;;;;5092576;28;20209;-58
2022/03/04 08:15:46;;;;;;;24.53;15.30;;;6.60;75.10;;;;;;5091991;28;20204;-58
2022/03/04 08:18:13;;;;;;;23.87;14.83;;;6.30;75.90;;;;;;5092155;28;20208;-56
2022/03/04 08:20:42;;;;;;;21.03;14.53;;;5.80;77.40;;;;;;5092198;28;20200;-56
2022/03/04 08:23:09;;;;;;;21.27;14.77;;;5.40;79.40;;;;;;5091849;28;20245;-56
2022/03/04 08:25:36;;;;;;;20.77;14.67;;;4.80;81.10;;;;;;5092309;28;20212;-55
2022/03/04 08:28:02;;;;;;;21.40;15.27;;;4.70;81.90;;;;;;5092349;28;20736;-59
2022/03/04 08:30:29;;;;;;;23.17;15.73;;;4.80;82.40;;;;;;5092443;28;20583;-59
2022/03/04 08:32:56;;;;;;;22.23;15.87;;;5.00;82.60;;;;;;5089264;28;20206;-58
2022/03/04 08:35:23;;;;;;;25.33;15.70;;;5.20;82.40;;;;;;5091795;28;20196;-59
2022/03/04 08:37:52;;;;;;;21.77;15.57;;;5.30;82.10;;;;;;5091978;28;20215;-59
2022/03/04 08:40:19;;;;;;;21.83;15.17;;;5.40;82.00;;;;;;5091823;28;20255;-58
2022/03/04 08:42:46;;;;;;;23.43;15.87;;;5.50;81.50;;;;;;5091734;28;20212;-62
2022/03/04 08:45:14;;;;;;;21.37;15.70;;;5.40;82.00;;;;;;5091673;28;20306;-59
2022/03/04 08:47:43;;;;;;;21.10;15.20;;;5.40;82.40;;;;;;5091889;28;20729;-60
2022/03/04 08:50:12;;;;;;;25.97;15.27;;;5.40;82.90;;;;;;5091730;28;20224;-57
2022/03/04 08:52:39;;;;;;;21.83;15.87;;;5.40;82.90;;;;;;5093172;28;20208;-60
2022/03/04 08:55:14;;;;;;;24.63;15.83;;;5.60;82.90;;;;;;5095650;28;20207;-58
2022/03/04 08:57:41;;;;;;;24.73;16.63;;;5.80;82.80;;;;;;5096439;28;20290;-58
2022/03/04 09:00:09;;;;;;;24.60;16.47;;;5.90;82.10;;;;;;5095606;28;20641;-61
2022/03/04 09:02:36;;;;;;;26.50;15.73;;;5.60;82.80;;;;;;5095682;28;20250;-59
2022/03/04 09:05:02;;;;;;;23.37;15.67;;;5.50;83.80;;;;;;5095293;28;20224;-57
2022/03/04 09:07:29;;;;;;;24.33;16.37;;;5.30;83.80;;;;;;5095877;28;20208;-57
2022/03/04 09:09:56;;;;;;;22.43;15.50;;;5.20;84.20;;;;;;5095760;28;20228;-58
2022/03/04 09:12:24;;;;;;;20.03;14.87;;;5.30;84.00;;;;;;5095586;28;20204;-57
2022/03/04 09:14:50;;;;;;;22.80;15.23;;;5.50;83.70;;;;;;5095158;28;20207;-57
2022/03/04 09:17:17;;;;;;;21.40;14.50;;;5.70;82.70;;;;;;5095327;28;20204;-56
2022/03/04 09:19:44;;;;;;;23.23;15.23;;;5.80;82.80;;;;;;5095914;28;20244;-57
2022/03/04 09:22:10;;;;;;;25.93;15.43;;;5.90;81.90;;;;;;5095403;28;20656;-56
2022/03/04 09:24:37;;;;;;;22.77;15.27;;;5.90;81.50;;;;;;5095321;28;20315;-56
2022/03/04 09:27:04;;;;;;;20.93;15.13;;;6.00;81.80;;;;;;5095417;28;20246;-57
2022/03/04 09:29:32;;;;;;;21.90;14.93;;;6.20;82.30;;;;;;5095267;28;20224;-56
2022/03/04 09:31:59;;;;;;;23.90;15.57;;;6.40;80.10;;;;;;5095335;28;20208;-57
2022/03/04 09:34:26;;;;;;;22.30;15.23;;;6.40;79.80;;;;;;5095042;28;20656;-56
2022/03/04 09:36:52;;;;;;;21.47;15.47;;;6.30;80.10;;;;;;5095255;28;20258;-57
2022/03/04 09:39:19;;;;;;;20.37;14.90;;;6.40;80.70;;;;;;5095073;28;20706;-56
2022/03/04 09:41:47;;;;;;;22.47;15.83;;;6.60;80.20;;;;;;5095091;28;20212;-57
2022/03/04 09:44:15;;;;;;;24.03;15.40;;;6.90;79.70;;;;;;5094718;28;20281;-56
2022/03/04 09:46:44;;;;;;;23.50;15.47;;;7.20;80.10;;;;;;5095261;28;20208;-56
2022/03/04 09:49:11;;;;;;;21.27;14.70;;;7.40;79.00;;;;;;5094957;28;20228;-59
2022/03/04 09:51:38;;;;;;;23.20;15.63;;;7.60;78.30;;;;;;5095037;28;20204;-57
2022/03/04 09:54:04;;;;;;;22.70;15.20;;;7.80;77.50;;;;;;5094471;28;20233;-57
2022/03/04 09:56:31;;;;;;;25.13;15.50;;;7.90;76.90;;;;;;5094724;28;20213;-57
2022/03/04 09:58:58;;;;;;;22.13;15.87;;;8.10;76.30;;;;;;5094631;28;20228;-57
2022/03/04 10:01:25;;;;;;;20.87;15.30;;;8.30;75.80;;;;;;5095072;28;20209;-58
2022/03/04 10:03:55;;;;;;;19.37;14.77;;;8.20;74.80;;;;;;5093903;28;20208;-57
2022/03/04 10:06:23;;;;;;;18.37;14.40;;;8.00;75.20;;;;;;5094699;28;20299;-56
2022/03/04 10:08:51;;;;;;;20.10;14.50;;;7.90;75.40;;;;;;5094967;28;20224;-57
2022/03/04 10:11:27;;;;;;;19.30;14.73;;;7.90;75.40;;;;;;5094469;28;20208;-56
2022/03/04 10:13:55;;;;;;;26.13;16.10;;;8.10;75.30;;;;;;5094182;28;20664;-56
2022/03/04 10:16:27;;;;;;;21.52;16.48;;;8.40;74.80;;;;;;5082637;28;20960;-55
2022/03/04 10:19:13;;;;;;;20.93;15.20;;;8.70;72.70;;;;;;5073624;28;20241;-55
2022/03/04 10:21:51;;;;;;;21.60;14.60;;;8.80;72.50;;;;;;5073791;28;20205;-55
2022/03/04 10:24:19;;;;;;;22.87;14.67;;;8.90;70.60;;;;;;5073791;28;20228;-55
2022/03/04 10:26:46;;;;;;;19.20;13.87;;;8.80;70.50;;;;;;5073893;28;20606;-55
2022/03/04 10:29:21;;;;;;;19.63;14.30;;;8.80;67.90;;;;;;5074140;28;20704;-54
2022/03/04 10:32:09;;;;;;;19.27;13.00;;;8.80;66.40;;;;;;5073965;28;20214;-55
2022/03/04 10:34:53;;;;;;;18.93;14.20;;;8.80;66.60;;;;;;5073640;28;20691;-54
2022/03/04 10:37:22;;;;;;;22.10;14.43;;;8.60;67.10;;;;;;5074003;28;20209;-54
2022/03/04 10:39:59;;;;;;;17.07;13.73;;;8.60;67.70;;;;;;5073828;28;20260;-55
2022/03/04 10:42:46;;;;;;;22.70;13.50;;;8.90;67.80;;;;;;5073445;28;20262;-55
2022/03/04 10:45:15;;;;;;;20.17;13.47;;;9.20;65.20;;;;;;5073128;28;20592;-54
2022/03/04 10:47:45;;;;;;;18.30;13.70;;;9.30;64.40;;;;;;5073209;28;20750;-55
2022/03/04 10:50:14;;;;;;;22.77;13.00;;;9.40;63.20;;;;;;5073698;28;20225;-54
2022/03/04 10:52:58;;;;;;;19.40;13.30;;;9.30;63.10;;;;;;5073225;28;20346;-54
2022/03/04 10:55:27;;;;;;;16.70;11.70;;;9.40;63.30;;;;;;5073135;28;20295;-55
2022/03/04 10:57:53;;;;;;;16.83;11.47;;;9.50;61.30;;;;;;5073082;28;20250;-55
2022/03/04 11:00:24;;;;;;;15.50;11.67;;;9.60;59.70;;;;;;5073106;28;20225;-57
2022/03/04 11:02:52;;;;;;;17.83;13.30;;;9.60;59.80;;;;;;5073166;28;20320;-55
2022/03/04 11:05:21;;;;;;;18.40;12.87;;;9.40;63.20;;;;;;5072572;28;20231;-60
2022/03/04 11:07:48;;;;;;;20.17;14.00;;;9.30;63.40;;;;;;5072415;28;20204;-59
2022/03/04 11:10:15;;;;;;;20.37;13.30;;;9.50;64.70;;;;;;5072455;28;20293;-58
2022/03/04 11:12:44;;;;;;;17.60;13.23;;;9.70;63.60;;;;;;5071930;28;20231;-58
2022/03/04 11:15:12;;;;;;;16.97;10.77;;;9.90;61.80;;;;;;5072337;28;20197;-57
2022/03/04 11:17:39;;;;;;;15.30;10.80;;;10.00;58.90;;;;;;5072125;28;20204;-58
2022/03/04 11:20:07;;;;;;;17.40;11.13;;;9.90;58.60;;;;;;5072038;28;20233;-57
2022/03/04 11:22:39;;;;;;;15.63;11.17;;;10.00;57.10;;;;;;5072359;28;20205;-61
2022/03/04 11:25:10;;;;;;;18.47;10.43;;;10.00;57.60;;;;;;5071935;28;20762;-61
2022/03/04 11:27:42;;;;;;;15.37;9.80;;;10.00;56.80;;;;;;5071872;28;20223;-57
2022/03/04 11:30:27;;;;;;;13.00;9.63;;;10.00;54.90;;;;;;5071824;28;20225;-58
2022/03/04 11:33:00;;;;;;;13.73;10.10;;;9.90;55.30;;;;;;5072585;28;20241;-58
2022/03/04 11:36:04;;;;;;;14.97;9.63;;;10.00;54.60;;;;;;5072328;28;20213;-56
2022/03/04 11:39:10;;;;;;;13.30;9.77;;;10.10;54.90;;;;;;5072653;28;20312;-56
2022/03/04 11:42:00;;;;;;;15.50;10.00;;;10.10;54.60;;;;;;5072413;28;20236;-56
2022/03/04 11:44:27;;;;;;;13.87;10.23;;;10.30;54.90;;;;;;5072454;28;20216;-56
2022/03/04 11:46:59;;;;;;;14.70;10.37;;;10.40;54.80;;;;;;5073102;28;20261;-57
2022/03/04 11:49:32;;;;;;;15.03;9.80;;;10.50;54.40;;;;;;5072051;28;20688;-57
2022/03/04 11:52:21;;;;;;;14.23;10.00;;;10.60;53.70;;;;;;5071776;28;20244;-56
2022/03/04 11:55:13;;;;;;;13.83;9.63;;;10.60;53.40;;;;;;5071765;28;20205;-58
2022/03/04 11:57:42;;;;;;;12.77;9.50;;;10.50;53.70;;;;;;5072294;28;20205;-59
2022/03/04 12:00:35;;;;;;;13.57;9.70;;;10.60;53.80;;;;;;5072051;28;20727;-58
2022/03/04 12:03:23;;;;;;;13.00;9.70;;;10.60;53.90;;;;;;5072676;28;20590;-55
2022/03/04 12:05:52;;;;;;;13.77;10.40;;;10.70;54.00;;;;;;5065894;28;20289;-55
2022/03/04 12:08:19;;;;;;;16.87;9.87;;;10.80;53.20;;;;;;5071811;28;20201;-55
2022/03/04 12:10:50;;;;;;;15.70;10.40;;;10.80;54.20;;;;;;5071982;28;20204;-55
2022/03/04 12:13:20;;;;;;;14.17;11.10;;;10.90;53.50;;;;;;5072411;28;20209;-54
2022/03/04 12:15:53;;;;;;;13.47;9.90;;;10.90;53.20;;;;;;5071612;28;20583;-55
2022/03/04 12:18:26;;;;;;;15.67;11.43;;;10.90;53.50;;;;;;5071649;28;20227;-55
2022/03/04 12:21:16;;;;;;;14.40;10.17;;;11.00;54.30;;;;;;5071842;28;20205;-55
2022/03/04 12:23:48;;;;;;;14.73;10.70;;;11.20;53.70;;;;;;5071949;28;20701;-54
2022/03/04 12:26:26;;;;;;;16.03;10.97;;;11.40;53.10;;;;;;5071991;28;20224;-55
2022/03/04 12:29:04;;;;;;;14.43;10.10;;;11.50;52.20;;;;;;5078136;28;20726;-56
2022/03/04 12:31:39;;;;;;;13.30;9.33;;;11.60;53.10;;;;;;5078864;28;20210;-55
2022/03/04 12:34:06;;;;;;;12.90;9.23;;;11.60;52.10;;;;;;5078711;28;20232;-55
2022/03/04 12:36:33;;;;;;;13.30;9.00;;;11.50;51.70;;;;;;5078684;28;20258;-56
2022/03/04 12:39:01;;;;;;;12.37;8.00;;;11.50;51.50;;;;;;5078796;28;20341;-55